sensor_id;sensor_type;location;lat;lon;timestamp;temperature;humidity
66102;HTU21D;52883;51.094;5.880;2023-03-13T00:01:26;10.38;118.99
66102;HTU21D;52883;51.094;5.880;2023-03-13T00:03:52;10.35;118.99
66102;HTU21D;52883;51.094;5.880;2023-03-13T00:06:21;10.36;118.99
66102;HTU21D;52883;51.094;5.880;2023-03-13T00:08:47;10.38;118.99
66102;HTU21D;52883;51.094;5.880;2023-03-13T00:11:14;10.38;118.99
66102;HTU21D;52883;51.094;5.880;2023-03-13T00:13:41;10.40;118.99
66102;HTU21D;52883;51.094;5.880;2023-03-13T00:16:12;10.40;118.99
66102;HTU21D;52883;51.094;5.880;2023-03-13T00:18:47;10.44;118.99
66102;HTU21D;52883;51.094;5.880;2023-03-13T00:21:13;10.46;118.99
66102;HTU21D;52883;51.094;5.880;2023-03-13T00:23:38;10.50;118.99
66102;HTU21D;52883;51.094;5.880;2023-03-13T00:26:10;10.55;118.99
66102;HTU21D;52883;51.094;5.880;2023-03-13T00:28:37;10.63;118.99
66102;HTU21D;52883;51.094;5.880;2023-03-13T00:31:14;10.65;118.99
66102;HTU21D;52883;51.094;5.880;2023-03-13T00:33:45;10.69;118.99
66102;HTU21D;52883;51.094;5.880;2023-03-13T00:36:19;10.73;118.99
66102;HTU21D;52883;51.094;5.880;2023-03-13T00:38:46;10.78;118.99
66102;HTU21D;52883;51.094;5.880;2023-03-13T00:41:14;10.84;118.99
66102;HTU21D;52883;51.094;5.880;2023-03-13T00:43:41;10.82;118.99
66102;HTU21D;52883;51.094;5.880;2023-03-13T00:46:08;10.72;118.99
66102;HTU21D;52883;51.094;5.880;2023-03-13T00:48:35;10.57;118.99
66102;HTU21D;52883;51.094;5.880;2023-03-13T00:51:02;10.52;118.99
66102;HTU21D;52883;51.094;5.880;2023-03-13T00:53:28;10.40;118.99
66102;HTU21D;52883;51.094;5.880;2023-03-13T00:55:58;10.31;118.99
66102;HTU21D;52883;51.094;5.880;2023-03-13T00:58:26;10.27;118.99
66102;HTU21D;52883;51.094;5.880;2023-03-13T01:00:53;10.22;118.99
66102;HTU21D;52883;51.094;5.880;2023-03-13T01:03:21;10.22;118.99
66102;HTU21D;52883;51.094;5.880;2023-03-13T01:06:00;10.19;118.99
66102;HTU21D;52883;51.094;5.880;2023-03-13T01:08:28;10.14;118.99
66102;HTU21D;52883;51.094;5.880;2023-03-13T01:11:05;10.14;118.99
66102;HTU21D;52883;51.094;5.880;2023-03-13T01:13:32;10.14;118.99
66102;HTU21D;52883;51.094;5.880;2023-03-13T01:16:06;10.12;118.99
66102;HTU21D;52883;51.094;5.880;2023-03-13T01:18:33;10.13;118.99
66102;HTU21D;52883;51.094;5.880;2023-03-13T01:20:59;10.18;118.99
66102;HTU21D;52883;51.094;5.880;2023-03-13T01:23:25;10.14;118.99
66102;HTU21D;52883;51.094;5.880;2023-03-13T01:25:55;10.22;118.99
66102;HTU21D;52883;51.094;5.880;2023-03-13T01:28:21;10.20;118.99
66102;HTU21D;52883;51.094;5.880;2023-03-13T01:30:47;10.18;118.99
66102;HTU21D;52883;51.094;5.880;2023-03-13T01:33:12;10.20;118.99
66102;HTU21D;52883;51.094;5.880;2023-03-13T01:35:39;10.27;118.99
66102;HTU21D;52883;51.094;5.880;2023-03-13T01:38:04;10.27;118.99
66102;HTU21D;52883;51.094;5.880;2023-03-13T01:40:30;10.25;118.99
66102;HTU21D;52883;51.094;5.880;2023-03-13T01:42:58;10.28;118.99
66102;HTU21D;52883;51.094;5.880;2023-03-13T01:45:53;10.26;118.99
66102;HTU21D;52883;51.094;5.880;2023-03-13T01:48:25;10.26;118.99
66102;HTU21D;52883;51.094;5.880;2023-03-13T01:50:54;10.28;118.99
66102;HTU21D;52883;51.094;5.880;2023-03-13T01:53:30;10.25;118.99
66102;HTU21D;52883;51.094;5.880;2023-03-13T01:55:59;10.27;118.99
66102;HTU21D;52883;51.094;5.880;2023-03-13T01:58:29;10.28;118.99
66102;HTU21D;52883;51.094;5.880;2023-03-13T02:00:56;10.28;118.99
66102;HTU21D;52883;51.094;5.880;2023-03-13T02:03:23;10.31;118.99
66102;HTU21D;52883;51.094;5.880;2023-03-13T02:05:50;10.35;118.99
66102;HTU21D;52883;51.094;5.880;2023-03-13T02:08:47;10.36;118.99
66102;HTU21D;52883;51.094;5.880;2023-03-13T02:11:24;10.36;118.99
66102;HTU21D;52883;51.094;5.880;2023-03-13T02:13:52;10.38;118.99
66102;HTU21D;52883;51.094;5.880;2023-03-13T02:16:20;10.44;118.99
66102;HTU21D;52883;51.094;5.880;2023-03-13T02:18:48;10.40;118.99
66102;HTU21D;52883;51.094;5.880;2023-03-13T02:21:30;10.44;118.99
66102;HTU21D;52883;51.094;5.880;2023-03-13T02:26:35;10.52;118.99
66102;HTU21D;52883;51.094;5.880;2023-03-13T02:29:00;10.51;118.99
66102;HTU21D;52883;51.094;5.880;2023-03-13T02:31:26;10.52;118.99
66102;HTU21D;52883;51.094;5.880;2023-03-13T02:33:54;10.54;118.99
66102;HTU21D;52883;51.094;5.880;2023-03-13T02:36:22;10.57;118.99
66102;HTU21D;52883;51.094;5.880;2023-03-13T02:38:55;10.63;118.99
66102;HTU21D;52883;51.094;5.880;2023-03-13T02:41:24;10.63;118.99
66102;HTU21D;52883;51.094;5.880;2023-03-13T02:43:50;10.68;118.99
66102;HTU21D;52883;51.094;5.880;2023-03-13T02:46:19;10.68;118.99
66102;HTU21D;52883;51.094;5.880;2023-03-13T02:48:53;10.68;118.99
66102;HTU21D;52883;51.094;5.880;2023-03-13T02:51:36;10.69;118.99
66102;HTU21D;52883;51.094;5.880;2023-03-13T02:54:10;10.71;118.99
66102;HTU21D;52883;51.094;5.880;2023-03-13T02:56:39;10.74;118.99
66102;HTU21D;52883;51.094;5.880;2023-03-13T02:59:06;10.82;118.99
66102;HTU21D;52883;51.094;5.880;2023-03-13T03:01:33;10.83;118.99
66102;HTU21D;52883;51.094;5.880;2023-03-13T03:03:58;10.84;118.99
66102;HTU21D;52883;51.094;5.880;2023-03-13T03:06:24;10.89;118.99
66102;HTU21D;52883;51.094;5.880;2023-03-13T03:08:50;10.89;118.99
66102;HTU21D;52883;51.094;5.880;2023-03-13T03:11:16;10.93;118.99
66102;HTU21D;52883;51.094;5.880;2023-03-13T03:13:44;10.94;118.99
66102;HTU21D;52883;51.094;5.880;2023-03-13T03:16:12;10.94;118.99
66102;HTU21D;52883;51.094;5.880;2023-03-13T03:18:40;10.97;118.99
66102;HTU21D;52883;51.094;5.880;2023-03-13T03:21:06;11.00;118.99
66102;HTU21D;52883;51.094;5.880;2023-03-13T03:23:37;11.07;118.99
66102;HTU21D;52883;51.094;5.880;2023-03-13T03:26:05;11.08;118.99
66102;HTU21D;52883;51.094;5.880;2023-03-13T03:28:31;11.12;118.99
66102;HTU21D;52883;51.094;5.880;2023-03-13T03:31:07;11.12;118.99
66102;HTU21D;52883;51.094;5.880;2023-03-13T03:33:34;11.19;118.99
66102;HTU21D;52883;51.094;5.880;2023-03-13T03:36:07;11.24;118.99
66102;HTU21D;52883;51.094;5.880;2023-03-13T03:38:34;11.25;118.99
66102;HTU21D;52883;51.094;5.880;2023-03-13T03:41:00;11.31;118.99
66102;HTU21D;52883;51.094;5.880;2023-03-13T03:43:27;11.29;118.99
66102;HTU21D;52883;51.094;5.880;2023-03-13T03:45:52;11.34;118.99
66102;HTU21D;52883;51.094;5.880;2023-03-13T03:48:19;11.39;118.99
66102;HTU21D;52883;51.094;5.880;2023-03-13T03:50:45;11.40;118.99
66102;HTU21D;52883;51.094;5.880;2023-03-13T03:53:13;11.43;118.99
66102;HTU21D;52883;51.094;5.880;2023-03-13T03:55:39;11.45;118.99
66102;HTU21D;52883;51.094;5.880;2023-03-13T03:58:05;11.48;118.99
66102;HTU21D;52883;51.094;5.880;2023-03-13T04:00:49;11.54;118.99
66102;HTU21D;52883;51.094;5.880;2023-03-13T04:03:15;11.53;118.99
66102;HTU21D;52883;51.094;5.880;2023-03-13T04:05:42;11.57;118.99
66102;HTU21D;52883;51.094;5.880;2023-03-13T04:08:09;11.59;118.99
66102;HTU21D;52883;51.094;5.880;2023-03-13T04:10:36;11.61;118.99
66102;HTU21D;52883;51.094;5.880;2023-03-13T04:13:01;11.64;118.99
66102;HTU21D;52883;51.094;5.880;2023-03-13T04:15:28;11.66;118.99
66102;HTU21D;52883;51.094;5.880;2023-03-13T04:17:53;11.70;118.99
66102;HTU21D;52883;51.094;5.880;2023-03-13T04:20:21;11.69;118.99
66102;HTU21D;52883;51.094;5.880;2023-03-13T04:22:46;11.73;118.99
66102;HTU21D;52883;51.094;5.880;2023-03-13T04:25:13;11.77;118.99
66102;HTU21D;52883;51.094;5.880;2023-03-13T04:27:40;11.78;118.99
66102;HTU21D;52883;51.094;5.880;2023-03-13T04:30:07;11.84;118.99
66102;HTU21D;52883;51.094;5.880;2023-03-13T04:32:51;11.85;118.99
66102;HTU21D;52883;51.094;5.880;2023-03-13T04:35:24;11.90;118.99
66102;HTU21D;52883;51.094;5.880;2023-03-13T04:38:04;11.89;118.99
66102;HTU21D;52883;51.094;5.880;2023-03-13T04:40:48;11.94;118.99
66102;HTU21D;52883;51.094;5.880;2023-03-13T04:43:28;11.96;118.99
66102;HTU21D;52883;51.094;5.880;2023-03-13T04:46:17;11.97;118.99
66102;HTU21D;52883;51.094;5.880;2023-03-13T04:49:05;12.00;118.99
66102;HTU21D;52883;51.094;5.880;2023-03-13T04:51:37;12.04;118.99
66102;HTU21D;52883;51.094;5.880;2023-03-13T04:54:12;12.07;118.99
66102;HTU21D;52883;51.094;5.880;2023-03-13T04:57:09;12.05;118.99
66102;HTU21D;52883;51.094;5.880;2023-03-13T05:00:02;12.07;118.99
66102;HTU21D;52883;51.094;5.880;2023-03-13T05:02:48;12.11;118.99
66102;HTU21D;52883;51.094;5.880;2023-03-13T05:05:35;12.18;118.99
66102;HTU21D;52883;51.094;5.880;2023-03-13T05:08:19;12.19;118.99
66102;HTU21D;52883;51.094;5.880;2023-03-13T05:11:17;12.18;118.99
66102;HTU21D;52883;51.094;5.880;2023-03-13T05:14:12;12.21;118.99
66102;HTU21D;52883;51.094;5.880;2023-03-13T05:16:58;12.21;118.99
66102;HTU21D;52883;51.094;5.880;2023-03-13T05:19:49;12.21;118.99
66102;HTU21D;52883;51.094;5.880;2023-03-13T05:22:22;12.20;118.99
66102;HTU21D;52883;51.094;5.880;2023-03-13T05:25:06;12.27;118.99
66102;HTU21D;52883;51.094;5.880;2023-03-13T05:27:58;12.23;118.99
66102;HTU21D;52883;51.094;5.880;2023-03-13T05:30:43;12.22;118.99
66102;HTU21D;52883;51.094;5.880;2023-03-13T05:33:23;12.25;118.99
66102;HTU21D;52883;51.094;5.880;2023-03-13T05:36:00;12.26;118.99
66102;HTU21D;52883;51.094;5.880;2023-03-13T05:38:36;12.28;118.99
66102;HTU21D;52883;51.094;5.880;2023-03-13T05:41:31;12.31;118.99
66102;HTU21D;52883;51.094;5.880;2023-03-13T05:44:20;12.34;118.99
66102;HTU21D;52883;51.094;5.880;2023-03-13T05:46:58;12.31;118.99
66102;HTU21D;52883;51.094;5.880;2023-03-13T05:49:45;12.34;118.99
66102;HTU21D;52883;51.094;5.880;2023-03-13T05:52:27;12.35;118.99
66102;HTU21D;52883;51.094;5.880;2023-03-13T05:55:05;12.36;118.99
66102;HTU21D;52883;51.094;5.880;2023-03-13T05:57:45;12.37;118.99
66102;HTU21D;52883;51.094;5.880;2023-03-13T06:00:31;12.42;118.99
66102;HTU21D;52883;51.094;5.880;2023-03-13T06:03:25;12.42;118.99
66102;HTU21D;52883;51.094;5.880;2023-03-13T06:05:57;12.41;118.99
66102;HTU21D;52883;51.094;5.880;2023-03-13T06:08:43;12.44;118.99
66102;HTU21D;52883;51.094;5.880;2023-03-13T06:11:09;12.50;118.99
66102;HTU21D;52883;51.094;5.880;2023-03-13T06:13:35;12.49;118.99
66102;HTU21D;52883;51.094;5.880;2023-03-13T06:16:08;12.57;118.99
66102;HTU21D;52883;51.094;5.880;2023-03-13T06:18:42;12.58;118.99
66102;HTU21D;52883;51.094;5.880;2023-03-13T06:21:07;12.58;118.99
66102;HTU21D;52883;51.094;5.880;2023-03-13T06:23:34;12.63;118.99
66102;HTU21D;52883;51.094;5.880;2023-03-13T06:26:00;12.59;118.99
66102;HTU21D;52883;51.094;5.880;2023-03-13T06:28:26;12.60;118.99
66102;HTU21D;52883;51.094;5.880;2023-03-13T06:30:51;12.61;118.99
66102;HTU21D;52883;51.094;5.880;2023-03-13T06:33:17;12.63;118.99
66102;HTU21D;52883;51.094;5.880;2023-03-13T06:35:43;12.64;118.99
66102;HTU21D;52883;51.094;5.880;2023-03-13T06:38:09;12.72;118.99
66102;HTU21D;52883;51.094;5.880;2023-03-13T06:40:35;12.74;118.99
66102;HTU21D;52883;51.094;5.880;2023-03-13T06:43:01;12.79;118.99
66102;HTU21D;52883;51.094;5.880;2023-03-13T06:45:27;12.79;118.99
66102;HTU21D;52883;51.094;5.880;2023-03-13T06:47:52;12.86;118.99
66102;HTU21D;52883;51.094;5.880;2023-03-13T06:50:18;12.85;118.99
66102;HTU21D;52883;51.094;5.880;2023-03-13T06:52:45;12.94;118.99
66102;HTU21D;52883;51.094;5.880;2023-03-13T06:55:11;12.97;118.99
66102;HTU21D;52883;51.094;5.880;2023-03-13T06:57:37;13.00;118.99
66102;HTU21D;52883;51.094;5.880;2023-03-13T07:00:03;13.02;118.99
66102;HTU21D;52883;51.094;5.880;2023-03-13T07:02:30;13.03;118.99
66102;HTU21D;52883;51.094;5.880;2023-03-13T07:04:56;13.14;118.99
66102;HTU21D;52883;51.094;5.880;2023-03-13T07:07:22;13.20;118.99
66102;HTU21D;52883;51.094;5.880;2023-03-13T07:09:48;13.24;118.99
66102;HTU21D;52883;51.094;5.880;2023-03-13T07:12:13;13.33;118.99
66102;HTU21D;52883;51.094;5.880;2023-03-13T07:14:39;13.43;118.99
66102;HTU21D;52883;51.094;5.880;2023-03-13T07:17:04;13.40;118.99
66102;HTU21D;52883;51.094;5.880;2023-03-13T07:19:30;13.47;118.99
66102;HTU21D;52883;51.094;5.880;2023-03-13T07:21:55;13.43;118.99
66102;HTU21D;52883;51.094;5.880;2023-03-13T07:24:21;13.37;118.99
66102;HTU21D;52883;51.094;5.880;2023-03-13T07:26:47;13.39;118.99
66102;HTU21D;52883;51.094;5.880;2023-03-13T07:29:13;13.36;118.99
66102;HTU21D;52883;51.094;5.880;2023-03-13T07:31:38;13.33;118.99
66102;HTU21D;52883;51.094;5.880;2023-03-13T07:34:04;13.35;118.99
66102;HTU21D;52883;51.094;5.880;2023-03-13T07:36:29;13.37;118.99
66102;HTU21D;52883;51.094;5.880;2023-03-13T07:38:56;13.35;118.99
66102;HTU21D;52883;51.094;5.880;2023-03-13T07:41:22;13.37;118.99
66102;HTU21D;52883;51.094;5.880;2023-03-13T07:43:47;13.46;118.99
66102;HTU21D;52883;51.094;5.880;2023-03-13T07:46:18;13.53;118.99
66102;HTU21D;52883;51.094;5.880;2023-03-13T07:48:45;13.64;118.99
66102;HTU21D;52883;51.094;5.880;2023-03-13T07:51:14;13.68;118.99
66102;HTU21D;52883;51.094;5.880;2023-03-13T07:53:41;13.82;118.99
66102;HTU21D;52883;51.094;5.880;2023-03-13T07:56:10;13.90;118.99
66102;HTU21D;52883;51.094;5.880;2023-03-13T07:58:38;13.92;118.99
66102;HTU21D;52883;51.094;5.880;2023-03-13T08:01:14;13.95;118.99
66102;HTU21D;52883;51.094;5.880;2023-03-13T08:03:41;14.04;118.99
66102;HTU21D;52883;51.094;5.880;2023-03-13T08:06:10;14.08;118.99
66102;HTU21D;52883;51.094;5.880;2023-03-13T08:08:37;14.18;118.99
66102;HTU21D;52883;51.094;5.880;2023-03-13T08:11:06;14.23;118.99
66102;HTU21D;52883;51.094;5.880;2023-03-13T08:13:33;14.25;118.99
66102;HTU21D;52883;51.094;5.880;2023-03-13T08:18:36;14.26;118.99
66102;HTU21D;52883;51.094;5.880;2023-03-13T08:21:07;14.26;118.99
66102;HTU21D;52883;51.094;5.880;2023-03-13T08:23:34;14.22;118.99
66102;HTU21D;52883;51.094;5.880;2023-03-13T08:28:33;14.33;118.99
66102;HTU21D;52883;51.094;5.880;2023-03-13T08:33:33;14.98;118.99
66102;HTU21D;52883;51.094;5.880;2023-03-13T08:35:59;15.23;118.99
66102;HTU21D;52883;51.094;5.880;2023-03-13T08:38:24;15.48;118.99
66102;HTU21D;52883;51.094;5.880;2023-03-13T08:40:55;15.74;118.99
66102;HTU21D;52883;51.094;5.880;2023-03-13T08:43:21;15.70;118.99
66102;HTU21D;52883;51.094;5.880;2023-03-13T08:45:53;15.38;118.99
66102;HTU21D;52883;51.094;5.880;2023-03-13T08:48:19;15.26;118.99
66102;HTU21D;52883;51.094;5.880;2023-03-13T08:50:44;15.17;118.99
66102;HTU21D;52883;51.094;5.880;2023-03-13T08:53:10;14.98;118.99
66102;HTU21D;52883;51.094;5.880;2023-03-13T08:55:36;14.84;118.99
66102;HTU21D;52883;51.094;5.880;2023-03-13T08:58:01;14.87;118.99
66102;HTU21D;52883;51.094;5.880;2023-03-13T09:00:27;15.07;118.99
66102;HTU21D;52883;51.094;5.880;2023-03-13T09:02:52;15.18;118.99
66102;HTU21D;52883;51.094;5.880;2023-03-13T09:05:18;15.33;118.99
66102;HTU21D;52883;51.094;5.880;2023-03-13T09:07:43;15.47;118.99
66102;HTU21D;52883;51.094;5.880;2023-03-13T09:10:09;15.46;118.99
66102;HTU21D;52883;51.094;5.880;2023-03-13T09:12:35;15.53;118.99
66102;HTU21D;52883;51.094;5.880;2023-03-13T09:15:00;15.49;118.99
66102;HTU21D;52883;51.094;5.880;2023-03-13T09:17:26;15.55;118.99
66102;HTU21D;52883;51.094;5.880;2023-03-13T09:19:52;15.83;118.99
66102;HTU21D;52883;51.094;5.880;2023-03-13T09:22:17;16.30;118.99
66102;HTU21D;52883;51.094;5.880;2023-03-13T09:24:43;16.94;118.99
66102;HTU21D;52883;51.094;5.880;2023-03-13T09:27:09;17.56;118.99
66102;HTU21D;52883;51.094;5.880;2023-03-13T09:29:34;17.85;118.99
66102;HTU21D;52883;51.094;5.880;2023-03-13T09:32:04;18.17;118.99
66102;HTU21D;52883;51.094;5.880;2023-03-13T09:34:30;18.29;118.99
66102;HTU21D;52883;51.094;5.880;2023-03-13T09:36:56;18.48;118.99
66102;HTU21D;52883;51.094;5.880;2023-03-13T09:39:21;18.59;118.99
66102;HTU21D;52883;51.094;5.880;2023-03-13T09:42:11;18.99;118.99
66102;HTU21D;52883;51.094;5.880;2023-03-13T09:45:07;19.09;118.99
66102;HTU21D;52883;51.094;5.880;2023-03-13T09:47:41;18.67;118.99
66102;HTU21D;52883;51.094;5.880;2023-03-13T09:50:28;18.51;118.99
66102;HTU21D;52883;51.094;5.880;2023-03-13T09:53:05;18.49;118.99
66102;HTU21D;52883;51.094;5.880;2023-03-13T09:55:37;18.36;118.99
66102;HTU21D;52883;51.094;5.880;2023-03-13T09:58:21;18.58;118.99
66102;HTU21D;52883;51.094;5.880;2023-03-13T10:00:59;19.00;118.99
66102;HTU21D;52883;51.094;5.880;2023-03-13T10:03:30;19.02;118.99
66102;HTU21D;52883;51.094;5.880;2023-03-13T10:06:03;18.86;118.99
66102;HTU21D;52883;51.094;5.880;2023-03-13T10:08:32;18.70;118.99
66102;HTU21D;52883;51.094;5.880;2023-03-13T10:11:02;18.65;118.99
66102;HTU21D;52883;51.094;5.880;2023-03-13T10:13:38;18.61;118.99
66102;HTU21D;52883;51.094;5.880;2023-03-13T10:18:35;18.81;118.99
66102;HTU21D;52883;51.094;5.880;2023-03-13T10:21:16;19.31;118.99
66102;HTU21D;52883;51.094;5.880;2023-03-13T10:23:54;19.61;118.99
66102;HTU21D;52883;51.094;5.880;2023-03-13T10:26:29;20.13;118.99
66102;HTU21D;52883;51.094;5.880;2023-03-13T10:29:00;20.63;118.99
66102;HTU21D;52883;51.094;5.880;2023-03-13T10:31:31;21.07;118.99
66102;HTU21D;52883;51.094;5.880;2023-03-13T10:34:12;21.19;118.99
66102;HTU21D;52883;51.094;5.880;2023-03-13T10:36:40;21.29;118.99
66102;HTU21D;52883;51.094;5.880;2023-03-13T10:39:17;21.46;118.99
66102;HTU21D;52883;51.094;5.880;2023-03-13T10:41:43;21.81;118.99
66102;HTU21D;52883;51.094;5.880;2023-03-13T10:44:18;21.83;118.99
66102;HTU21D;52883;51.094;5.880;2023-03-13T10:46:47;21.55;118.99
66102;HTU21D;52883;51.094;5.880;2023-03-13T10:49:19;21.23;118.99
66102;HTU21D;52883;51.094;5.880;2023-03-13T10:52:02;21.21;118.99
66102;HTU21D;52883;51.094;5.880;2023-03-13T10:54:33;21.30;118.99
66102;HTU21D;52883;51.094;5.880;2023-03-13T10:59:42;21.30;118.99
66102;HTU21D;52883;51.094;5.880;2023-03-13T11:02:31;21.52;118.99
66102;HTU21D;52883;51.094;5.880;2023-03-13T11:04:56;21.72;118.99
66102;HTU21D;52883;51.094;5.880;2023-03-13T11:07:35;21.72;118.99
66102;HTU21D;52883;51.094;5.880;2023-03-13T11:10:18;21.53;118.99
66102;HTU21D;52883;51.094;5.880;2023-03-13T11:12:52;21.51;118.99
66102;HTU21D;52883;51.094;5.880;2023-03-13T11:15:28;21.75;118.99
66102;HTU21D;52883;51.094;5.880;2023-03-13T11:18:14;21.79;118.99
66102;HTU21D;52883;51.094;5.880;2023-03-13T11:20:45;21.62;111.84
66102;HTU21D;52883;51.094;5.880;2023-03-13T11:23:36;21.61;118.99
66102;HTU21D;52883;51.094;5.880;2023-03-13T11:26:34;21.79;115.19
66102;HTU21D;52883;51.094;5.880;2023-03-13T11:29:16;21.38;106.45
66102;HTU21D;52883;51.094;5.880;2023-03-13T11:31:50;21.16;118.99
66102;HTU21D;52883;51.094;5.880;2023-03-13T11:34:26;21.00;113.79
66102;HTU21D;52883;51.094;5.880;2023-03-13T11:36:59;20.83;113.81
66102;HTU21D;52883;51.094;5.880;2023-03-13T11:42:23;20.84;118.99
66102;HTU21D;52883;51.094;5.880;2023-03-13T11:50:57;21.15;118.99
66102;HTU21D;52883;51.094;5.880;2023-03-13T11:56:36;20.83;118.99
66102;HTU21D;52883;51.094;5.880;2023-03-13T11:59:24;20.58;118.99
66102;HTU21D;52883;51.094;5.880;2023-03-13T12:02:32;20.73;118.99
66102;HTU21D;52883;51.094;5.880;2023-03-13T12:05:04;21.23;118.99
66102;HTU21D;52883;51.094;5.880;2023-03-13T12:07:40;21.66;118.99
66102;HTU21D;52883;51.094;5.880;2023-03-13T12:13:11;21.69;112.77
66102;HTU21D;52883;51.094;5.880;2023-03-13T12:15:45;21.39;114.37
66102;HTU21D;52883;51.094;5.880;2023-03-13T12:18:36;21.36;118.99
66102;HTU21D;52883;51.094;5.880;2023-03-13T12:24:28;21.74;118.99
66102;HTU21D;52883;51.094;5.880;2023-03-13T12:27:01;21.58;108.52
66102;HTU21D;52883;51.094;5.880;2023-03-13T12:29:48;21.89;117.91
66102;HTU21D;52883;51.094;5.880;2023-03-13T12:32:44;21.81;117.51
66102;HTU21D;52883;51.094;5.880;2023-03-13T12:35:20;21.14;113.67
66102;HTU21D;52883;51.094;5.880;2023-03-13T12:38:07;20.55;118.99
66102;HTU21D;52883;51.094;5.880;2023-03-13T12:41:00;20.51;118.99
66102;HTU21D;52883;51.094;5.880;2023-03-13T12:43:33;20.78;118.99
66102;HTU21D;52883;51.094;5.880;2023-03-13T12:51:41;21.11;114.90
66102;HTU21D;52883;51.094;5.880;2023-03-13T12:54:15;21.75;118.99
66102;HTU21D;52883;51.094;5.880;2023-03-13T13:01:58;21.78;111.46
66102;HTU21D;52883;51.094;5.880;2023-03-13T13:04:27;21.32;113.93
66102;HTU21D;52883;51.094;5.880;2023-03-13T13:07:02;21.13;116.34
66102;HTU21D;52883;51.094;5.880;2023-03-13T13:09:57;20.98;110.84
66102;HTU21D;52883;51.094;5.880;2023-03-13T13:12:21;21.15;118.57
66102;HTU21D;52883;51.094;5.880;2023-03-13T13:20:27;20.65;113.35
66102;HTU21D;52883;51.094;5.880;2023-03-13T13:22:56;20.10;115.73
66102;HTU21D;52883;51.094;5.880;2023-03-13T13:25:34;19.58;118.99
66102;HTU21D;52883;51.094;5.880;2023-03-13T13:30:51;19.35;118.99
66102;HTU21D;52883;51.094;5.880;2023-03-13T13:38:48;19.89;118.99
66102;HTU21D;52883;51.094;5.880;2023-03-13T13:43:48;19.76;118.99
66102;HTU21D;52883;51.094;5.880;2023-03-13T13:46:27;19.39;118.99
66102;HTU21D;52883;51.094;5.880;2023-03-13T13:51:36;19.08;118.99
66102;HTU21D;52883;51.094;5.880;2023-03-13T13:54:31;19.08;118.99
66102;HTU21D;52883;51.094;5.880;2023-03-13T13:57:14;19.15;118.99
66102;HTU21D;52883;51.094;5.880;2023-03-13T13:59:43;19.15;118.99
66102;HTU21D;52883;51.094;5.880;2023-03-13T14:02:25;19.22;118.15
66102;HTU21D;52883;51.094;5.880;2023-03-13T14:10:06;19.17;115.96
66102;HTU21D;52883;51.094;5.880;2023-03-13T14:12:39;19.08;118.99
66102;HTU21D;52883;51.094;5.880;2023-03-13T14:15:20;19.16;118.99
66102;HTU21D;52883;51.094;5.880;2023-03-13T14:17:52;19.25;114.09
66102;HTU21D;52883;51.094;5.880;2023-03-13T14:22:48;19.25;118.99
66102;HTU21D;52883;51.094;5.880;2023-03-13T14:25:15;19.30;118.99
66102;HTU21D;52883;51.094;5.880;2023-03-13T14:27:45;19.32;118.99
66102;HTU21D;52883;51.094;5.880;2023-03-13T14:30:15;19.28;118.99
66102;HTU21D;52883;51.094;5.880;2023-03-13T14:32:41;19.14;118.99
66102;HTU21D;52883;51.094;5.880;2023-03-13T14:35:09;18.82;118.99
66102;HTU21D;52883;51.094;5.880;2023-03-13T14:37:47;18.48;118.99
66102;HTU21D;52883;51.094;5.880;2023-03-13T14:40:36;18.38;118.99
66102;HTU21D;52883;51.094;5.880;2023-03-13T14:43:04;18.25;118.99
66102;HTU21D;52883;51.094;5.880;2023-03-13T14:45:41;18.12;118.99
66102;HTU21D;52883;51.094;5.880;2023-03-13T14:50:44;18.05;118.99
66102;HTU21D;52883;51.094;5.880;2023-03-13T14:53:18;18.21;118.99
66102;HTU21D;52883;51.094;5.880;2023-03-13T14:55:44;18.22;118.99
66102;HTU21D;52883;51.094;5.880;2023-03-13T15:00:47;18.09;118.99
66102;HTU21D;52883;51.094;5.880;2023-03-13T15:05:43;18.07;118.99
66102;HTU21D;52883;51.094;5.880;2023-03-13T15:08:18;18.24;118.99
66102;HTU21D;52883;51.094;5.880;2023-03-13T15:10:45;18.43;118.99
66102;HTU21D;52883;51.094;5.880;2023-03-13T15:15:53;18.61;118.99
66102;HTU21D;52883;51.094;5.880;2023-03-13T15:18:25;18.49;118.99
66102;HTU21D;52883;51.094;5.880;2023-03-13T15:20:57;18.29;118.99
66102;HTU21D;52883;51.094;5.880;2023-03-13T15:23:24;17.94;118.99
66102;HTU21D;52883;51.094;5.880;2023-03-13T15:25:50;17.76;118.99
66102;HTU21D;52883;51.094;5.880;2023-03-13T15:28:19;17.56;118.99
66102;HTU21D;52883;51.094;5.880;2023-03-13T15:30:48;17.39;118.99
66102;HTU21D;52883;51.094;5.880;2023-03-13T15:33:20;17.32;118.99
66102;HTU21D;52883;51.094;5.880;2023-03-13T15:35:47;17.26;118.99
66102;HTU21D;52883;51.094;5.880;2023-03-13T15:38:19;17.22;118.99
66102;HTU21D;52883;51.094;5.880;2023-03-13T15:40:44;17.09;118.99
66102;HTU21D;52883;51.094;5.880;2023-03-13T15:43:11;16.94;118.99
66102;HTU21D;52883;51.094;5.880;2023-03-13T15:45:40;16.87;118.99
66102;HTU21D;52883;51.094;5.880;2023-03-13T15:48:20;16.74;118.99
66102;HTU21D;52883;51.094;5.880;2023-03-13T15:50:54;16.72;118.99
66102;HTU21D;52883;51.094;5.880;2023-03-13T15:53:26;16.60;118.99
66102;HTU21D;52883;51.094;5.880;2023-03-13T15:55:54;16.48;118.99
66102;HTU21D;52883;51.094;5.880;2023-03-13T15:58:20;16.52;118.99
66102;HTU21D;52883;51.094;5.880;2023-03-13T16:00:46;16.47;118.99
66102;HTU21D;52883;51.094;5.880;2023-03-13T16:03:17;16.41;118.99
66102;HTU21D;52883;51.094;5.880;2023-03-13T16:05:45;16.26;118.99
66102;HTU21D;52883;51.094;5.880;2023-03-13T16:08:14;16.13;118.99
66102;HTU21D;52883;51.094;5.880;2023-03-13T16:10:41;16.01;118.99
66102;HTU21D;52883;51.094;5.880;2023-03-13T16:13:07;15.89;118.99
66102;HTU21D;52883;51.094;5.880;2023-03-13T16:15:34;15.82;118.99
66102;HTU21D;52883;51.094;5.880;2023-03-13T16:17:59;15.67;118.99
66102;HTU21D;52883;51.094;5.880;2023-03-13T16:20:26;15.56;118.99
66102;HTU21D;52883;51.094;5.880;2023-03-13T16:22:54;15.51;118.99
66102;HTU21D;52883;51.094;5.880;2023-03-13T16:25:20;15.43;118.99
66102;HTU21D;52883;51.094;5.880;2023-03-13T16:27:46;15.43;118.99
66102;HTU21D;52883;51.094;5.880;2023-03-13T16:30:21;15.47;118.99
66102;HTU21D;52883;51.094;5.880;2023-03-13T16:32:47;15.46;118.99
66102;HTU21D;52883;51.094;5.880;2023-03-13T16:35:13;15.45;118.99
66102;HTU21D;52883;51.094;5.880;2023-03-13T16:37:39;15.47;118.99
66102;HTU21D;52883;51.094;5.880;2023-03-13T16:40:13;15.45;118.99
66102;HTU21D;52883;51.094;5.880;2023-03-13T16:42:39;15.40;118.99
66102;HTU21D;52883;51.094;5.880;2023-03-13T16:45:06;15.30;118.99
66102;HTU21D;52883;51.094;5.880;2023-03-13T16:47:31;15.28;118.99
66102;HTU21D;52883;51.094;5.880;2023-03-13T16:49:57;15.21;118.99
66102;HTU21D;52883;51.094;5.880;2023-03-13T16:52:22;15.17;118.99